Time;durP1;ratioP1;P1;durP2;ratioP2;P2;SDS_P1;SDS_P2;PMS_P1;PMS_P2;Temp;Humidity;BMP_temperature;BMP_pressure;BME280_temperature;BME280_humidity;BME280_pressure;Samples;Min_cycle;Max_cycle;Signal;HPM_P1;HPM_P2
2022/07/08 00:01:00;;;;;;;10.20;2.30;;;15.20;99.90;;;;;;4996217;28;20068;-65
2022/07/08 00:03:26;;;;;;;7.85;1.80;;;15.20;99.90;;;;;;4994812;28;20031;-65
2022/07/08 00:05:51;;;;;;;7.45;2.03;;;15.10;99.90;;;;;;5002353;28;20030;-65
2022/07/08 00:08:18;;;;;;;9.27;1.83;;;15.00;99.90;;;;;;5011955;28;20483;-64
2022/07/08 00:10:44;;;;;;;10.55;1.90;;;15.00;99.90;;;;;;5015727;28;20145;-65
2022/07/08 00:13:09;;;;;;;5.70;1.77;;;14.90;99.90;;;;;;4996360;28;20101;-69
2022/07/08 00:15:36;;;;;;;8.63;1.95;;;15.00;99.90;;;;;;4998073;28;20026;-63
2022/07/08 00:18:01;;;;;;;7.65;1.98;;;14.90;99.90;;;;;;5007360;28;20015;-64
2022/07/08 00:20:27;;;;;;;8.20;2.08;;;14.90;99.90;;;;;;4987236;28;20052;-65
2022/07/08 00:22:52;;;;;;;6.05;1.63;;;14.90;99.90;;;;;;4990818;28;20058;-66
2022/07/08 00:25:18;;;;;;;5.68;1.77;;;14.90;99.90;;;;;;5013335;28;20084;-65
2022/07/08 00:27:43;;;;;;;8.95;2.03;;;14.80;99.90;;;;;;5007697;28;20022;-64
2022/07/08 00:30:09;;;;;;;10.18;2.10;;;14.80;99.90;;;;;;5000048;28;20026;-67
2022/07/08 00:32:36;;;;;;;10.23;2.22;;;14.80;99.90;;;;;;5005345;28;20038;-64
2022/07/08 00:35:28;;;;;;;8.57;2.08;;;14.80;99.90;;;;;;5008410;28;20392;-65
2022/07/08 00:37:54;;;;;;;5.95;1.60;;;14.80;99.90;;;;;;4995043;28;20461;-66
2022/07/08 00:40:20;;;;;;;8.98;1.80;;;14.70;99.90;;;;;;4994168;28;20022;-65
2022/07/08 00:42:48;;;;;;;11.07;2.35;;;14.70;99.90;;;;;;4995482;28;20015;-66
2022/07/08 00:45:17;;;;;;;11.57;1.80;;;14.60;99.90;;;;;;4994081;28;20416;-64
2022/07/08 00:47:43;;;;;;;8.35;1.92;;;14.60;99.90;;;;;;4994886;28;20026;-67
2022/07/08 00:50:09;;;;;;;8.25;1.80;;;14.50;99.90;;;;;;4994280;28;20027;-64
2022/07/08 00:52:39;;;;;;;7.10;2.10;;;14.40;99.90;;;;;;4995333;28;20024;-65
2022/07/08 00:55:06;;;;;;;7.20;2.30;;;14.40;99.90;;;;;;4995219;28;20041;-65
2022/07/08 00:57:33;;;;;;;12.85;2.28;;;14.40;99.90;;;;;;4995111;28;20019;-64
2022/07/08 00:59:59;;;;;;;11.15;1.88;;;14.30;99.90;;;;;;4994937;28;20026;-65
2022/07/08 01:02:25;;;;;;;8.15;2.30;;;14.30;99.90;;;;;;4994935;28;20104;-67
2022/07/08 01:04:51;;;;;;;7.93;2.03;;;14.30;99.90;;;;;;4995123;28;20037;-66
2022/07/08 01:07:17;;;;;;;8.25;2.25;;;14.20;99.90;;;;;;4995104;28;20023;-65
2022/07/08 01:09:43;;;;;;;7.40;1.88;;;14.10;99.90;;;;;;4995090;28;20035;-63
2022/07/08 01:12:09;;;;;;;5.78;1.63;;;14.20;99.90;;;;;;4993613;28;20022;-63
2022/07/08 01:14:34;;;;;;;15.48;2.75;;;14.10;99.90;;;;;;4994571;28;20026;-68
2022/07/08 01:17:00;;;;;;;7.85;1.92;;;14.10;99.90;;;;;;4994988;28;20423;-64
2022/07/08 01:19:26;;;;;;;10.48;2.30;;;14.00;99.90;;;;;;4994758;28;20022;-64
2022/07/08 01:21:51;;;;;;;9.32;2.30;;;14.00;99.90;;;;;;4994498;28;20337;-68
2022/07/08 01:24:18;;;;;;;15.55;2.05;;;14.00;99.90;;;;;;4994993;28;20030;-64
2022/07/08 01:26:44;;;;;;;9.80;1.98;;;13.90;99.90;;;;;;4993753;28;20029;-65
2022/07/08 01:29:11;;;;;;;8.45;2.03;;;13.90;99.90;;;;;;4994142;28;20030;-64
2022/07/08 01:31:37;;;;;;;14.65;2.53;;;13.90;99.90;;;;;;4994541;28;20411;-67
2022/07/08 01:34:03;;;;;;;15.65;2.30;;;13.90;99.90;;;;;;4994373;28;20023;-64
2022/07/08 01:36:29;;;;;;;13.32;2.50;;;13.80;99.90;;;;;;4994198;28;20038;-64
2022/07/08 01:38:54;;;;;;;11.00;2.10;;;13.80;99.90;;;;;;4993247;28;20022;-64
2022/07/08 01:41:20;;;;;;;11.20;2.20;;;13.80;99.90;;;;;;4994150;28;20050;-65
2022/07/08 01:43:45;;;;;;;12.30;2.15;;;13.80;99.90;;;;;;4994130;28;20051;-65
2022/07/08 01:46:11;;;;;;;8.00;2.30;;;13.70;99.90;;;;;;4994511;28;20042;-64
2022/07/08 01:48:37;;;;;;;9.07;2.30;;;13.70;99.90;;;;;;4994063;28;20113;-67
2022/07/08 01:51:03;;;;;;;7.78;2.22;;;13.70;99.90;;;;;;4994296;28;20029;-63
2022/07/08 01:53:28;;;;;;;16.65;2.58;;;13.70;99.90;;;;;;4994467;28;20033;-65
2022/07/08 01:55:54;;;;;;;12.65;2.65;;;13.60;99.90;;;;;;4993511;28;20036;-64
2022/07/08 01:58:20;;;;;;;11.98;2.22;;;13.60;99.90;;;;;;4993913;28;20053;-65
2022/07/08 02:00:45;;;;;;;14.75;2.78;;;13.60;99.90;;;;;;4993829;28;20142;-66
2022/07/08 02:03:11;;;;;;;8.38;2.10;;;13.60;99.90;;;;;;4994337;28;20050;-65
2022/07/08 02:05:37;;;;;;;14.73;2.88;;;13.50;99.90;;;;;;4994114;28;20034;-69
2022/07/08 02:08:03;;;;;;;11.23;2.08;;;13.50;99.90;;;;;;5005913;28;20033;-64
2022/07/08 02:12:18;;;;;;;10.95;2.60;;;13.40;99.90;;;;;;5013539;28;20026;-66
2022/07/08 02:13:16;;;;;;;9.10;2.00;;;13.40;99.90;;;;;;5013061;28;20026;-68
2022/07/08 02:15:42;;;;;;;11.00;2.03;;;13.40;99.90;;;;;;5013652;28;20021;-68
2022/07/08 02:18:08;;;;;;;11.20;2.33;;;13.30;99.90;;;;;;5013703;28;20116;-65
2022/07/08 02:20:33;;;;;;;10.95;2.00;;;13.40;99.90;;;;;;5013665;28;20468;-65
2022/07/08 02:22:59;;;;;;;11.82;2.45;;;13.30;99.90;;;;;;5014117;28;20352;-66
2022/07/08 02:25:24;;;;;;;17.23;2.70;;;13.30;99.90;;;;;;5012829;28;20112;-68
2022/07/08 02:27:50;;;;;;;9.07;2.28;;;13.30;99.90;;;;;;4993292;28;20026;-67
2022/07/08 02:30:16;;;;;;;18.10;3.00;;;13.30;99.90;;;;;;4993288;28;20345;-64
2022/07/08 02:32:41;;;;;;;10.85;2.25;;;13.30;99.90;;;;;;4991191;28;20456;-65
2022/07/08 02:35:07;;;;;;;16.90;2.17;;;13.20;99.90;;;;;;4993242;28;20019;-65
2022/07/08 02:37:33;;;;;;;10.13;2.17;;;13.30;99.90;;;;;;4993298;28;20018;-66
2022/07/08 02:39:58;;;;;;;10.75;2.17;;;13.20;99.90;;;;;;4993469;28;20360;-63
2022/07/08 02:42:24;;;;;;;10.63;2.05;;;13.20;99.90;;;;;;4991896;28;20213;-68
2022/07/08 02:44:49;;;;;;;14.98;2.92;;;13.20;99.90;;;;;;4990438;28;20046;-65
2022/07/08 02:47:15;;;;;;;12.57;2.13;;;13.20;99.90;;;;;;4993218;28;20105;-64
2022/07/08 02:49:41;;;;;;;12.93;2.00;;;13.20;99.90;;;;;;4993252;28;20018;-65
2022/07/08 02:52:07;;;;;;;14.77;2.25;;;13.20;99.90;;;;;;4993201;28;20018;-64
2022/07/08 02:54:32;;;;;;;11.23;2.03;;;13.20;99.90;;;;;;4992904;28;20097;-64
2022/07/08 02:56:58;;;;;;;8.95;2.38;;;13.20;99.90;;;;;;4992876;28;20444;-64
2022/07/08 02:59:24;;;;;;;14.30;2.85;;;13.20;99.90;;;;;;4993127;28;20352;-64
2022/07/08 03:01:50;;;;;;;8.30;1.77;;;13.30;99.90;;;;;;4991762;28;20391;-64
2022/07/08 03:04:15;;;;;;;11.15;2.45;;;13.30;99.90;;;;;;4993198;28;20046;-65
2022/07/08 03:06:41;;;;;;;10.80;2.63;;;13.30;99.90;;;;;;4993095;28;20031;-64
2022/07/08 03:09:07;;;;;;;11.75;2.40;;;13.20;99.90;;;;;;4996616;28;20101;-65
2022/07/08 03:11:32;;;;;;;16.25;2.63;;;13.30;99.90;;;;;;4996854;28;20022;-67
2022/07/08 03:13:58;;;;;;;10.50;2.95;;;13.30;99.90;;;;;;4996625;28;20046;-67
2022/07/08 03:16:23;;;;;;;12.63;2.10;;;13.30;99.90;;;;;;4996956;28;20018;-64
2022/07/08 03:18:49;;;;;;;16.25;2.38;;;13.30;99.90;;;;;;4996918;28;20042;-66
2022/07/08 03:21:14;;;;;;;12.30;2.50;;;13.30;99.90;;;;;;4996941;28;20396;-67
2022/07/08 03:23:40;;;;;;;13.25;2.63;;;13.30;99.90;;;;;;4996393;28;20425;-67
2022/07/08 03:26:06;;;;;;;13.73;2.60;;;13.30;99.90;;;;;;4996262;28;20038;-64
2022/07/08 03:28:31;;;;;;;14.77;3.00;;;13.40;99.90;;;;;;4996727;28;20089;-66
2022/07/08 03:30:57;;;;;;;9.50;2.53;;;13.40;99.90;;;;;;4996672;28;20436;-65
2022/07/08 03:33:23;;;;;;;9.90;2.28;;;13.40;99.90;;;;;;4995247;28;20108;-64
2022/07/08 03:35:49;;;;;;;9.38;2.50;;;13.40;99.90;;;;;;4996437;28;20074;-65
2022/07/08 03:38:14;;;;;;;14.35;2.80;;;13.40;99.90;;;;;;4996696;28;20105;-64
2022/07/08 03:43:24;;;;;;;9.13;2.10;;;13.50;99.90;;;;;;4996014;28;20033;-65
2022/07/08 03:45:49;;;;;;;8.95;2.30;;;13.50;99.90;;;;;;4995073;28;20030;-65
2022/07/08 03:48:15;;;;;;;14.38;2.67;;;13.50;99.90;;;;;;4996356;28;20093;-67
2022/07/08 03:50:41;;;;;;;13.25;2.85;;;13.50;99.90;;;;;;4996404;28;20022;-66
2022/07/08 03:53:06;;;;;;;12.10;2.58;;;13.50;99.90;;;;;;4995367;28;20061;-62
2022/07/08 03:55:32;;;;;;;9.35;2.25;;;13.50;99.90;;;;;;4996134;28;20022;-67
2022/07/08 03:57:58;;;;;;;12.35;2.85;;;13.50;99.90;;;;;;4996055;28;20449;-64
2022/07/08 04:00:24;;;;;;;12.95;2.95;;;13.50;99.90;;;;;;4994519;28;20022;-64
2022/07/08 04:02:49;;;;;;;13.80;2.78;;;13.50;99.90;;;;;;4995872;28;20025;-64
2022/07/08 04:05:15;;;;;;;12.73;3.55;;;13.60;99.90;;;;;;4995960;28;20026;-63
2022/07/08 04:07:41;;;;;;;14.93;2.40;;;13.60;99.90;;;;;;4996031;28;20042;-65
2022/07/08 04:10:07;;;;;;;6.72;2.30;;;13.60;99.90;;;;;;4996104;28;20085;-64
2022/07/08 04:12:33;;;;;;;11.45;2.90;;;13.60;99.90;;;;;;4995549;28;20085;-65
2022/07/08 04:14:59;;;;;;;6.72;2.40;;;13.70;99.90;;;;;;4995848;28;20322;-66
2022/07/08 04:17:24;;;;;;;15.15;4.57;;;13.70;99.90;;;;;;4996327;28;20050;-66
2022/07/08 04:19:50;;;;;;;16.92;4.43;;;13.70;99.90;;;;;;4995547;28;20026;-67
2022/07/08 04:22:15;;;;;;;11.27;3.53;;;13.70;99.90;;;;;;4996353;28;20061;-64
2022/07/08 04:24:41;;;;;;;17.13;3.22;;;13.70;99.90;;;;;;4995977;28;20365;-67
2022/07/08 04:27:06;;;;;;;11.52;3.30;;;13.70;99.90;;;;;;4996179;28;20394;-66
2022/07/08 04:29:32;;;;;;;15.63;3.35;;;13.80;99.90;;;;;;4996015;28;20408;-68
2022/07/08 04:31:57;;;;;;;14.07;3.47;;;13.80;99.90;;;;;;4996076;28;20041;-66
2022/07/08 04:34:23;;;;;;;15.65;3.65;;;13.90;99.90;;;;;;4995907;28;20101;-64
2022/07/08 04:36:48;;;;;;;15.95;5.35;;;13.90;99.90;;;;;;4995639;28;20050;-64
2022/07/08 04:39:14;;;;;;;11.02;3.47;;;13.90;99.90;;;;;;4995534;28;20041;-63
2022/07/08 04:41:39;;;;;;;15.80;3.10;;;14.00;99.90;;;;;;4995463;28;20095;-64
2022/07/08 04:44:05;;;;;;;17.00;2.88;;;14.10;99.90;;;;;;4995427;28;20050;-64
2022/07/08 04:46:31;;;;;;;16.80;3.55;;;14.20;99.90;;;;;;4995652;28;20551;-64
2022/07/08 04:48:56;;;;;;;14.65;4.90;;;14.30;99.90;;;;;;4995725;28;20042;-64
2022/07/08 04:51:23;;;;;;;15.15;4.05;;;14.40;99.90;;;;;;4994035;28;20154;-64
2022/07/08 04:53:49;;;;;;;13.60;3.38;;;14.60;99.90;;;;;;4995377;28;20014;-65
2022/07/08 04:56:14;;;;;;;16.38;3.58;;;14.80;99.90;;;;;;4995577;28;20379;-63
2022/07/08 04:58:40;;;;;;;12.38;3.08;;;15.00;99.90;;;;;;4995831;28;20042;-64
2022/07/08 05:01:05;;;;;;;13.85;3.40;;;15.10;99.90;;;;;;4995705;28;20037;-64
2022/07/08 05:03:31;;;;;;;10.85;2.85;;;15.30;99.90;;;;;;4994315;28;20030;-65
2022/07/08 05:05:57;;;;;;;10.50;2.90;;;15.50;99.90;;;;;;4995477;28;20041;-65
2022/07/08 05:08:22;;;;;;;20.83;7.07;;;15.70;99.90;;;;;;4994391;28;20419;-64
2022/07/08 05:10:48;;;;;;;12.27;3.60;;;15.90;99.90;;;;;;4994814;28;20030;-64
2022/07/08 05:13:14;;;;;;;14.52;3.63;;;16.00;99.90;;;;;;4994250;28;20022;-64
2022/07/08 05:15:40;;;;;;;15.02;3.92;;;16.20;99.90;;;;;;4995787;28;20460;-63
2022/07/08 05:18:05;;;;;;;17.05;3.55;;;16.40;99.90;;;;;;4995172;28;20034;-65
2022/07/08 05:20:31;;;;;;;15.02;3.03;;;16.50;99.90;;;;;;4995205;28;20109;-65
2022/07/08 05:22:57;;;;;;;19.75;4.85;;;16.70;99.90;;;;;;4995178;28;20030;-65
2022/07/08 05:25:22;;;;;;;12.20;2.95;;;16.80;99.90;;;;;;4995271;28;20483;-64
2022/07/08 05:27:48;;;;;;;8.00;2.53;;;17.00;99.90;;;;;;4994791;28;20476;-64
2022/07/08 05:30:14;;;;;;;16.30;3.13;;;17.10;99.90;;;;;;4993592;28;20038;-64
2022/07/08 05:32:40;;;;;;;12.45;3.90;;;17.30;99.90;;;;;;4994957;28;20018;-63
2022/07/08 05:35:07;;;;;;;19.58;4.18;;;17.50;99.90;;;;;;4994866;28;20049;-64
2022/07/08 05:37:35;;;;;;;16.77;3.88;;;17.60;99.90;;;;;;4994913;28;20026;-64
2022/07/08 05:40:00;;;;;;;21.50;6.43;;;17.70;99.90;;;;;;4994955;28;20707;-64
2022/07/08 05:42:26;;;;;;;12.85;2.28;;;17.90;99.90;;;;;;4994869;28;20034;-63
2022/07/08 05:44:51;;;;;;;17.70;5.97;;;18.00;99.90;;;;;;4994610;28;20046;-64
2022/07/08 05:47:17;;;;;;;13.75;4.03;;;18.20;99.90;;;;;;4994744;28;20102;-64
2022/07/08 05:49:43;;;;;;;12.98;2.88;;;18.30;99.90;;;;;;4994528;28;20026;-64
2022/07/08 05:52:10;;;;;;;13.75;4.03;;;18.40;99.90;;;;;;4993473;28;20022;-64
2022/07/08 05:54:36;;;;;;;16.75;5.15;;;18.60;99.90;;;;;;4994889;28;20065;-64
2022/07/08 05:57:02;;;;;;;11.68;3.42;;;18.70;99.90;;;;;;4994482;28;20022;-64
2022/07/08 05:59:29;;;;;;;12.75;3.22;;;18.70;99.90;;;;;;4994242;28;20064;-66
2022/07/08 06:01:55;;;;;;;14.95;4.28;;;18.80;99.90;;;;;;4994335;28;20018;-68
2022/07/08 06:04:21;;;;;;;12.68;3.88;;;19.00;99.90;;;;;;4994066;28;20041;-66
2022/07/08 06:06:46;;;;;;;10.77;2.78;;;19.10;99.90;;;;;;4994040;28;20539;-64
2022/07/08 06:09:12;;;;;;;15.02;5.75;;;19.20;99.90;;;;;;4994246;28;20045;-65
2022/07/08 06:11:38;;;;;;;12.70;3.22;;;19.30;99.90;;;;;;4994501;28;20488;-64
2022/07/08 06:14:04;;;;;;;13.98;4.55;;;19.40;99.90;;;;;;4993977;28;20037;-63
2022/07/08 06:16:29;;;;;;;12.25;3.88;;;19.60;99.90;;;;;;4994360;28;20018;-65
2022/07/08 06:18:55;;;;;;;13.55;4.28;;;19.70;99.90;;;;;;4993869;28;20033;-68
2022/07/08 06:21:21;;;;;;;17.20;4.43;;;19.80;99.90;;;;;;4994226;28;20448;-65
2022/07/08 06:23:46;;;;;;;13.13;4.57;;;19.90;99.90;;;;;;4994055;28;20026;-64
2022/07/08 06:26:12;;;;;;;10.98;3.22;;;19.90;99.90;;;;;;4994029;28;20034;-67
2022/07/08 06:28:37;;;;;;;15.70;4.57;;;19.90;99.90;;;;;;4993915;28;20033;-68
2022/07/08 06:31:03;;;;;;;14.77;3.28;;;20.00;99.90;;;;;;4994158;28;20072;-65
2022/07/08 06:33:29;;;;;;;8.60;2.63;;;20.10;99.90;;;;;;4994181;28;20133;-69
2022/07/08 06:35:54;;;;;;;12.60;3.03;;;20.20;99.90;;;;;;4994238;28;20034;-66
2022/07/08 06:38:20;;;;;;;12.77;4.10;;;20.40;99.90;;;;;;4992657;28;20026;-63
2022/07/08 06:40:45;;;;;;;7.43;2.05;;;20.50;99.90;;;;;;4991936;28;20030;-64
2022/07/08 06:43:11;;;;;;;6.55;1.42;;;20.60;99.90;;;;;;4992061;28;20030;-66
2022/07/08 06:45:37;;;;;;;13.02;3.30;;;20.80;99.90;;;;;;4993719;28;20058;-63
2022/07/08 06:48:03;;;;;;;7.45;2.42;;;21.00;99.90;;;;;;4993084;28;20419;-65
2022/07/08 06:50:29;;;;;;;9.65;3.25;;;21.10;99.90;;;;;;4993688;28;20429;-64
2022/07/08 06:52:55;;;;;;;12.43;3.47;;;21.10;99.90;;;;;;4993652;28;20105;-66
2022/07/08 06:55:21;;;;;;;7.53;2.10;;;21.10;99.90;;;;;;4993329;28;20125;-64
2022/07/08 06:57:47;;;;;;;6.60;1.83;;;21.20;99.90;;;;;;4993856;28;20459;-64
2022/07/08 07:00:13;;;;;;;9.95;2.20;;;21.30;99.90;;;;;;4993381;28;20037;-66
2022/07/08 07:02:39;;;;;;;13.23;3.15;;;21.40;99.90;;;;;;4993307;28;20029;-65
2022/07/08 07:05:06;;;;;;;10.02;2.08;;;21.60;99.90;;;;;;4992462;28;20034;-67
2022/07/08 07:07:31;;;;;;;10.52;2.28;;;21.90;99.90;;;;;;4991951;28;20062;-65
2022/07/08 07:09:57;;;;;;;8.18;2.00;;;22.10;99.90;;;;;;4993409;28;20058;-68
2022/07/08 07:12:23;;;;;;;11.93;3.13;;;22.40;99.90;;;;;;4993433;28;20030;-64
2022/07/08 07:14:48;;;;;;;6.78;1.83;;;22.60;99.90;;;;;;4993775;28;20393;-62
2022/07/08 07:17:20;;;;;;;9.90;2.20;;;22.80;99.80;;;;;;4993636;28;20022;-66
2022/07/08 07:19:47;;;;;;;11.07;2.40;;;23.00;99.70;;;;;;4993611;28;20101;-65
2022/07/08 07:22:13;;;;;;;8.20;2.13;;;23.30;99.40;;;;;;4993285;28;20475;-66
2022/07/08 07:24:39;;;;;;;10.30;2.20;;;23.70;98.80;;;;;;4993786;28;20026;-66
2022/07/08 07:27:05;;;;;;;11.20;2.58;;;23.90;98.10;;;;;;4993317;28;20049;-66
2022/07/08 07:29:31;;;;;;;4.35;1.80;;;24.00;97.40;;;;;;4993529;28;20028;-69
2022/07/08 07:31:56;;;;;;;9.23;2.08;;;24.10;97.40;;;;;;4992940;28;20033;-67
2022/07/08 07:34:22;;;;;;;3.40;1.25;;;24.50;96.90;;;;;;4993521;28;20093;-68
2022/07/08 07:36:48;;;;;;;4.25;1.50;;;24.90;96.00;;;;;;4992684;28;20037;-64
2022/07/08 07:39:13;;;;;;;8.15;2.10;;;25.40;95.20;;;;;;4993490;28;20114;-67
2022/07/08 07:41:39;;;;;;;9.15;2.08;;;25.90;94.40;;;;;;4993358;28;20045;-67
2022/07/08 07:44:05;;;;;;;5.85;1.60;;;26.80;93.30;;;;;;4993260;28;20085;-68
2022/07/08 07:46:32;;;;;;;8.50;2.28;;;27.30;92.00;;;;;;4993309;28;20045;-64
2022/07/08 07:48:57;;;;;;;6.65;2.15;;;27.70;91.50;;;;;;4993411;28;20417;-65
2022/07/08 07:51:23;;;;;;;11.35;2.65;;;28.00;91.00;;;;;;4993276;28;20026;-65
2022/07/08 07:53:49;;;;;;;13.15;2.50;;;28.30;90.80;;;;;;4993497;28;20022;-65
2022/07/08 07:56:14;;;;;;;6.78;2.50;;;28.30;90.60;;;;;;4997209;28;20038;-65
2022/07/08 07:58:40;;;;;;;6.93;2.30;;;28.30;90.40;;;;;;4996507;28;20022;-65
2022/07/08 08:01:06;;;;;;;7.63;2.33;;;28.10;90.40;;;;;;4995959;28;20436;-64
2022/07/08 08:03:32;;;;;;;10.88;3.83;;;27.60;90.60;;;;;;4991793;28;20026;-65
2022/07/08 08:05:58;;;;;;;10.60;2.75;;;27.10;91.00;;;;;;4996342;28;20061;-64
2022/07/08 08:08:24;;;;;;;9.63;3.17;;;26.60;91.10;;;;;;4996521;28;20109;-65
2022/07/08 08:10:51;;;;;;;10.52;3.05;;;26.20;91.60;;;;;;4996772;28;20511;-64
2022/07/08 08:13:16;;;;;;;5.57;2.22;;;26.00;91.80;;;;;;4996651;28;20054;-65
2022/07/08 08:15:42;;;;;;;7.75;2.20;;;26.00;91.80;;;;;;4996470;28;20083;-64
2022/07/08 08:18:08;;;;;;;8.73;2.88;;;26.20;91.20;;;;;;4995526;28;20030;-64
2022/07/08 08:20:34;;;;;;;6.63;2.53;;;26.30;90.30;;;;;;4995234;28;20026;-65
2022/07/08 08:22:59;;;;;;;7.40;2.45;;;26.60;89.40;;;;;;4995101;28;20045;-65
2022/07/08 08:25:25;;;;;;;12.40;3.42;;;26.90;89.90;;;;;;4996040;28;20452;-65
2022/07/08 08:27:51;;;;;;;8.85;2.00;;;27.20;88.10;;;;;;4995517;28;20346;-65
2022/07/08 08:30:17;;;;;;;4.60;1.77;;;27.80;86.80;;;;;;4995993;28;20030;-64
2022/07/08 08:32:43;;;;;;;4.72;1.98;;;28.30;83.60;;;;;;4995434;28;20018;-65
2022/07/08 08:35:09;;;;;;;7.40;2.35;;;29.30;83.00;;;;;;4996260;28;20053;-65
2022/07/08 08:37:35;;;;;;;4.40;1.58;;;30.40;80.60;;;;;;4995076;28;20018;-65
2022/07/08 08:40:10;;;;;;;7.18;2.00;;;31.30;79.40;;;;;;4996155;28;20022;-64
2022/07/08 08:42:35;;;;;;;6.35;1.95;;;32.10;76.80;;;;;;4995953;28;20026;-64
2022/07/08 08:45:03;;;;;;;5.07;2.03;;;32.80;75.40;;;;;;4995853;28;20411;-64
2022/07/08 08:47:33;;;;;;;4.70;1.80;;;33.50;73.50;;;;;;4996072;28;20026;-65
2022/07/08 08:52:55;;;;;;;6.82;1.85;;;34.60;69.20;;;;;;4996167;28;20424;-64
2022/07/08 08:55:28;;;;;;;7.80;2.33;;;35.20;65.70;;;;;;4996048;28;20030;-65
2022/07/08 08:58:01;;;;;;;6.45;1.60;;;35.50;64.40;;;;;;4994996;28;20527;-65
2022/07/08 09:00:29;;;;;;;6.53;1.80;;;35.70;61.20;;;;;;4996168;28;20046;-65
2022/07/08 09:02:56;;;;;;;7.53;2.05;;;35.90;60.00;;;;;;4995902;28;20021;-65
2022/07/08 09:05:23;;;;;;;11.27;3.70;;;35.80;59.30;;;;;;4995462;28;20026;-64
2022/07/08 09:07:49;;;;;;;2.80;1.35;;;35.80;58.90;;;;;;4995831;28;20441;-65
2022/07/08 09:10:16;;;;;;;4.55;1.60;;;36.00;58.50;;;;;;4995638;28;20139;-65
2022/07/08 09:13:05;;;;;;;5.07;1.88;;;36.10;58.60;;;;;;4995297;28;20018;-65
2022/07/08 09:15:45;;;;;;;5.55;1.90;;;36.30;59.10;;;;;;4995266;28;20022;-65
2022/07/08 09:18:15;;;;;;;8.07;2.05;;;36.20;59.50;;;;;;4993843;28;20023;-65
2022/07/08 09:20:46;;;;;;;7.15;2.58;;;36.00;59.70;;;;;;4994691;28;20050;-65
2022/07/08 09:23:26;;;;;;;9.45;2.33;;;36.00;59.90;;;;;;4994638;28;20023;-64
2022/07/08 09:25:57;;;;;;;6.78;2.10;;;36.40;59.80;;;;;;4992876;28;20424;-65
2022/07/08 09:28:33;;;;;;;8.93;4.65;;;36.50;60.00;;;;;;4995389;28;20440;-64
2022/07/08 09:31:03;;;;;;;6.20;1.73;;;36.60;59.20;;;;;;4993791;28;20122;-63
2022/07/08 09:33:29;;;;;;;8.90;2.05;;;36.90;59.00;;;;;;4993866;28;20030;-65
2022/07/08 09:35:56;;;;;;;4.43;1.42;;;37.00;58.50;;;;;;4995037;28;20045;-66
2022/07/08 09:38:23;;;;;;;9.07;2.55;;;37.10;58.40;;;;;;4995172;28;20027;-65
2022/07/08 09:41:01;;;;;;;8.80;2.30;;;37.10;58.20;;;;;;4994768;28;20368;-65
2022/07/08 09:43:27;;;;;;;8.30;2.55;;;37.00;57.90;;;;;;4994840;28;20453;-65
2022/07/08 09:45:53;;;;;;;7.43;2.08;;;36.90;57.30;;;;;;4995087;28;20046;-65
2022/07/08 09:48:19;;;;;;;5.50;2.03;;;36.60;57.90;;;;;;4994919;28;20515;-64
2022/07/08 09:50:48;;;;;;;4.40;1.83;;;36.40;57.90;;;;;;4994369;28;20030;-65
2022/07/08 09:53:19;;;;;;;7.63;2.47;;;36.00;57.90;;;;;;4994625;28;20030;-65
2022/07/08 09:55:53;;;;;;;5.72;1.85;;;35.70;58.50;;;;;;4994777;28;20022;-65
2022/07/08 09:58:23;;;;;;;9.15;2.35;;;35.10;58.10;;;;;;4994646;28;20026;-67
2022/07/08 10:00:50;;;;;;;4.00;1.75;;;35.20;58.70;;;;;;4992228;28;20022;-67
2022/07/08 10:03:18;;;;;;;6.10;1.67;;;35.60;58.90;;;;;;4994506;28;20054;-64
2022/07/08 10:05:44;;;;;;;5.53;1.17;;;36.00;58.70;;;;;;4994687;28;20117;-66
2022/07/08 10:08:11;;;;;;;6.97;1.60;;;36.00;58.90;;;;;;4994519;28;20033;-67
2022/07/08 10:10:38;;;;;;;5.78;1.65;;;36.00;59.50;;;;;;4994610;28;20030;-66
2022/07/08 10:13:05;;;;;;;6.90;2.00;;;36.10;59.40;;;;;;4994519;28;20445;-66
2022/07/08 10:15:32;;;;;;;8.25;2.28;;;35.90;60.50;;;;;;4994590;28;20049;-66
2022/07/08 10:18:06;;;;;;;8.38;2.50;;;35.80;60.90;;;;;;4993797;28;20054;-67
2022/07/08 10:20:33;;;;;;;8.77;2.10;;;35.70;61.10;;;;;;4994673;28;20073;-65
2022/07/08 10:23:05;;;;;;;9.27;2.28;;;35.80;61.40;;;;;;4994133;28;20353;-68
2022/07/08 10:25:31;;;;;;;5.47;1.67;;;36.00;61.10;;;;;;4994443;28;20404;-64
2022/07/08 10:28:07;;;;;;;4.30;1.50;;;36.10;61.60;;;;;;4994285;28;20037;-67
2022/07/08 10:30:52;;;;;;;6.35;1.63;;;36.20;61.10;;;;;;4994245;28;20034;-65
2022/07/08 10:33:22;;;;;;;11.43;2.75;;;36.40;61.60;;;;;;4993947;28;20057;-65
2022/07/08 10:36:20;;;;;;;8.30;2.63;;;36.60;61.00;;;;;;4974976;28;20034;-65
2022/07/08 10:38:46;;;;;;;7.47;2.78;;;36.60;61.10;;;;;;4976874;28;20031;-66
2022/07/08 10:41:17;;;;;;;7.90;2.17;;;36.70;60.70;;;;;;4973290;28;20045;-67
2022/07/08 10:43:54;;;;;;;11.18;3.30;;;36.60;60.70;;;;;;4974413;28;20023;-67
2022/07/08 10:46:21;;;;;;;8.98;2.55;;;36.60;60.70;;;;;;4974597;28;20030;-69
2022/07/08 10:48:50;;;;;;;7.55;1.92;;;36.70;61.10;;;;;;4974728;28;20125;-65
2022/07/08 10:51:23;;;;;;;11.07;3.25;;;36.70;61.20;;;;;;4974517;28;20462;-65
2022/07/08 10:53:56;;;;;;;8.50;2.10;;;36.60;61.30;;;;;;4974557;28;20023;-65
2022/07/08 10:56:47;;;;;;;9.35;2.15;;;36.90;60.90;;;;;;4974554;28;20023;-65
2022/07/08 10:59:22;;;;;;;11.73;1.92;;;37.20;61.70;;;;;;4974662;28;20110;-65
2022/07/08 11:01:54;;;;;;;11.25;2.53;;;37.20;60.90;;;;;;4973217;28;20026;-65
2022/07/08 11:04:34;;;;;;;9.23;2.35;;;37.30;61.40;;;;;;4972767;28;20361;-65
2022/07/08 11:07:20;;;;;;;8.38;2.10;;;37.40;61.10;;;;;;4982780;28;20041;-66
2022/07/08 11:10:02;;;;;;;8.57;1.92;;;37.50;60.90;;;;;;4993866;28;20018;-66
2022/07/08 11:12:32;;;;;;;8.82;2.10;;;37.60;60.50;;;;;;4992792;28;20022;-66
2022/07/08 11:14:59;;;;;;;11.70;1.88;;;37.30;60.50;;;;;;4993197;28;20117;-63
2022/07/08 11:17:26;;;;;;;7.30;1.80;;;37.10;61.00;;;;;;4993622;28;20101;-65
2022/07/08 11:19:53;;;;;;;9.27;1.80;;;36.90;61.20;;;;;;5003185;28;20022;-65
2022/07/08 11:22:20;;;;;;;6.93;1.92;;;36.70;61.40;;;;;;5013195;28;20515;-67
2022/07/08 11:24:46;;;;;;;9.50;2.00;;;36.50;61.20;;;;;;5013249;28;20018;-69
2022/07/08 11:27:12;;;;;;;8.05;1.98;;;36.30;61.70;;;;;;4982889;28;20030;-64
2022/07/08 11:29:49;;;;;;;9.48;2.10;;;36.20;62.20;;;;;;4995353;28;20019;-64
2022/07/08 11:32:17;;;;;;;7.57;1.70;;;36.30;62.20;;;;;;4997364;28;20106;-69
2022/07/08 11:34:44;;;;;;;10.90;2.28;;;36.00;62.90;;;;;;4997497;28;20018;-66
2022/07/08 11:37:09;;;;;;;10.20;2.40;;;36.10;62.80;;;;;;4996782;28;20112;-66
2022/07/08 11:39:35;;;;;;;12.30;2.83;;;36.30;62.00;;;;;;4996600;28;20409;-68
2022/07/08 11:42:00;;;;;;;9.18;1.90;;;36.30;62.10;;;;;;4996686;28;20038;-64
2022/07/08 11:44:27;;;;;;;10.75;2.15;;;36.20;62.50;;;;;;4996764;28;20046;-67
2022/07/08 11:46:53;;;;;;;5.95;1.52;;;36.20;61.90;;;;;;4996609;28;20129;-65
2022/07/08 11:49:24;;;;;;;8.63;1.80;;;36.20;61.80;;;;;;4996850;28;20109;-66
2022/07/08 11:51:52;;;;;;;7.47;1.98;;;36.30;62.30;;;;;;4992833;28;20022;-64
2022/07/08 11:54:23;;;;;;;12.65;2.58;;;36.60;62.60;;;;;;4995922;28;20105;-67
2022/07/08 11:56:56;;;;;;;7.60;1.98;;;36.70;62.00;;;;;;4995490;28;20018;-68
2022/07/08 11:59:32;;;;;;;12.05;2.40;;;36.90;62.10;;;;;;4995302;28;20026;-65
2022/07/08 12:01:59;;;;;;;11.20;2.17;;;37.10;62.20;;;;;;4996426;28;20057;-67
2022/07/08 12:04:25;;;;;;;9.15;1.48;;;37.30;61.80;;;;;;4994281;28;20030;-65
2022/07/08 12:06:56;;;;;;;10.25;2.50;;;37.20;61.70;;;;;;4996073;28;20042;-64
2022/07/08 12:09:24;;;;;;;11.25;2.33;;;36.90;62.00;;;;;;4996608;28;20029;-64
2022/07/08 12:11:51;;;;;;;8.50;1.83;;;36.80;62.00;;;;;;4996203;28;20022;-65
2022/07/08 12:14:17;;;;;;;9.80;1.92;;;36.70;61.20;;;;;;4996563;28;20364;-64
2022/07/08 12:16:51;;;;;;;10.75;2.38;;;36.50;62.60;;;;;;4996388;28;20106;-64
2022/07/08 12:19:30;;;;;;;9.15;1.88;;;36.60;61.40;;;;;;4996360;28;20352;-67
2022/07/08 12:21:58;;;;;;;7.65;2.03;;;36.40;61.90;;;;;;4996308;28;20041;-66
2022/07/08 12:24:43;;;;;;;9.93;2.47;;;36.40;62.40;;;;;;4996276;28;20026;-65
2022/07/08 12:27:15;;;;;;;12.75;2.42;;;36.40;62.00;;;;;;4996414;28;20034;-66
2022/07/08 12:29:41;;;;;;;11.82;2.50;;;36.20;62.30;;;;;;4996302;28;20026;-64
2022/07/08 12:32:09;;;;;;;7.82;1.90;;;36.20;62.40;;;;;;4994941;28;20100;-63
2022/07/08 12:34:35;;;;;;;11.50;2.13;;;36.20;62.60;;;;;;4996229;28;20030;-64
2022/07/08 12:37:20;;;;;;;11.57;2.17;;;36.10;61.80;;;;;;4995902;28;20030;-64
2022/07/08 12:39:46;;;;;;;10.23;2.20;;;35.80;62.60;;;;;;4995808;28;20026;-64
2022/07/08 12:42:12;;;;;;;10.02;2.13;;;35.30;63.90;;;;;;4995484;28;20445;-64
2022/07/08 12:44:42;;;;;;;10.60;2.10;;;34.90;64.40;;;;;;4995526;28;20116;-64
2022/07/08 12:47:10;;;;;;;9.35;2.38;;;34.60;64.80;;;;;;4995885;28;20038;-64